臺中航空站 - ATIS

METAR RCMQ 040200Z 01012KT 9999 FEW006 BKN025 BKN060 20/16 Q1018 NOSIG RMK A3008 APCH CLD FEW006=

站台狀態:Offline
最後更新:2020-04-04 10:00:02